Time;durP1;ratioP1;P1;durP2;ratioP2;P2;SDS_P1;SDS_P2;PMS_P1;PMS_P2;Temp;Humidity;BMP_temperature;BMP_pressure;BME280_temperature;BME280_humidity;BME280_pressure;Samples;Min_cycle;Max_cycle;Signal;HPM_P1;HPM_P2
2023/07/12 00:01:37;;;;;;;5.75;3.10;;;;;;;13.51;69.99;99122.00;5090599;28;20039;-54
2023/07/12 00:04:03;;;;;;;7.07;3.30;;;;;;;13.48;70.20;99125.00;5089893;28;20036;-51
2023/07/12 00:06:38;;;;;;;4.65;3.20;;;;;;;13.43;70.45;99122.81;5092673;28;20051;-53
2023/07/12 00:09:05;;;;;;;;;;;;;;;13.77;69.79;99121.09;5080933;28;20036;-53
2023/07/12 00:11:30;;;;;;;6.18;3.55;;;;;;;13.48;69.82;99119.59;5072209;28;20229;-52
2023/07/12 00:13:56;;;;;;;3.53;3.08;;;;;;;13.17;70.34;99082.44;5072181;28;20029;-48
2023/07/12 00:16:23;;;;;;;3.83;3.08;;;;;;;13.35;70.47;99118.19;5072780;28;20027;-54
2023/07/12 00:18:49;;;;;;;3.33;3.03;;;;;;;13.35;70.54;99123.56;5073042;28;20384;-62
2023/07/12 00:21:22;;;;;;;5.93;3.42;;;;;;;13.38;70.30;99116.19;5077058;28;20028;-51
2023/07/12 00:23:52;;;;;;;7.50;3.53;;;;;;;13.41;69.84;99121.22;5076917;28;20142;-52
2023/07/12 00:26:26;;;;;;;3.80;3.38;;;;;;;13.50;69.98;99117.59;5077494;28;20483;-54
2023/07/12 00:28:52;;;;;;;4.30;2.92;;;;;;;13.47;69.55;99118.78;5094385;28;20036;-56
2023/07/12 00:31:17;;;;;;;5.50;3.33;;;;;;;13.49;69.42;99118.59;5096912;28;20059;-52
2023/07/12 00:33:43;;;;;;;4.47;3.05;;;;;;;13.50;69.16;99120.28;5096754;28;20108;-53
2023/07/12 00:36:18;;;;;;;7.65;3.00;;;;;;;13.51;69.15;99105.88;5078513;28;20522;-54
2023/07/12 00:38:43;;;;;;;4.40;2.92;;;;;;;13.52;68.79;99109.38;5083304;28;20036;-53
2023/07/12 00:41:17;;;;;;;3.45;2.88;;;;;;;13.49;68.42;99110.53;5075997;28;20033;-55
2023/07/12 00:43:46;;;;;;;3.40;2.80;;;;;;;13.49;68.47;99118.59;5076231;28;20540;-53
2023/07/12 00:46:51;;;;;;;3.80;2.90;;;;;;;13.53;68.78;99109.25;5076971;28;20107;-56
2023/07/12 00:49:17;;;;;;;5.93;3.17;;;;;;;13.39;68.45;99109.78;5077272;28;20101;-53
2023/07/12 00:51:49;;;;;;;4.60;2.90;;;;;;;13.37;68.32;99114.50;5076965;28;20033;-53
2023/07/12 00:54:18;;;;;;;3.08;2.72;;;;;;;13.43;68.12;99120.09;5074880;28;20040;-55
2023/07/12 00:56:44;;;;;;;3.95;3.45;;;;;;;13.28;68.77;99106.38;5075435;28;20032;-53
2023/07/12 00:59:12;;;;;;;4.13;2.80;;;;;;;13.24;68.75;99107.69;5090095;28;20093;-50
2023/07/12 01:01:38;;;;;;;5.35;3.17;;;;;;;12.98;68.83;99073.59;5096782;28;20024;-49
2023/07/12 01:04:06;;;;;;;3.38;3.03;;;;;;;13.18;69.15;99111.00;5096749;28;20345;-51
2023/07/12 01:06:31;;;;;;;4.43;3.30;;;;;;;13.15;69.03;99100.59;5095881;28;20048;-50
2023/07/12 01:09:08;;;;;;;3.33;2.78;;;;;;;13.22;68.92;99109.69;5093775;28;20047;-52
2023/07/12 01:11:34;;;;;;;5.82;2.70;;;;;;;13.15;68.93;99096.06;5094075;28;20085;-51
2023/07/12 01:13:59;;;;;;;4.10;2.85;;;;;;;13.15;69.21;99095.22;5094052;28;20442;-54
2023/07/12 01:16:25;;;;;;;4.78;2.58;;;;;;;13.13;69.01;99097.22;5095627;28;20020;-52
2023/07/12 01:18:51;;;;;;;4.05;3.25;;;;;;;13.15;69.34;99100.59;5093453;28;20036;-53
2023/07/12 01:21:18;;;;;;;3.78;3.38;;;;;;;13.20;69.37;99092.88;5095706;28;20075;-50
2023/07/12 01:23:45;;;;;;;3.92;3.22;;;;;;;13.23;68.98;99094.41;5084690;28;20037;-56
2023/07/12 01:26:22;;;;;;;5.95;2.95;;;;;;;13.34;68.83;99091.44;5075074;28;20116;-53
2023/07/12 01:28:52;;;;;;;4.47;3.00;;;;;;;13.34;68.59;99100.38;5075349;28;20593;-55
2023/07/12 01:31:17;;;;;;;6.93;2.78;;;;;;;13.37;68.56;99101.03;5074297;28;20047;-51
2023/07/12 01:33:43;;;;;;;4.82;3.08;;;;;;;13.38;68.40;99094.66;5074914;28;20036;-52
2023/07/12 01:36:10;;;;;;;4.50;2.85;;;;;;;13.16;68.17;99060.13;5074177;28;20460;-53
2023/07/12 01:38:35;;;;;;;8.43;3.22;;;;;;;13.42;68.24;99090.66;5075854;28;20032;-54
2023/07/12 01:41:01;;;;;;;4.97;2.65;;;;;;;13.45;68.37;99085.84;5074913;28;20036;-54
2023/07/12 01:43:28;;;;;;;4.47;2.70;;;;;;;13.27;67.74;99050.94;5074958;28;20039;-53
2023/07/12 01:45:53;;;;;;;3.20;2.90;;;;;;;13.53;67.43;99087.72;5074742;28;20028;-62
2023/07/12 01:48:19;;;;;;;3.10;2.78;;;;;;;13.54;67.46;99089.41;5076086;28;20429;-47
2023/07/12 01:50:44;;;;;;;4.20;2.83;;;;;;;13.34;67.05;99051.97;5074647;28;20028;-51
2023/07/12 01:53:10;;;;;;;3.45;2.80;;;;;;;13.57;67.27;99089.09;5074547;28;20360;-55
2023/07/12 01:55:36;;;;;;;3.33;2.80;;;;;;;13.58;66.86;99090.75;5074810;28;20466;-52
2023/07/12 01:58:01;;;;;;;6.82;3.20;;;;;;;13.59;66.33;99081.69;5075527;28;20435;-53
2023/07/12 02:00:27;;;;;;;3.13;2.60;;;;;;;13.62;66.45;99081.38;5075497;28;20043;-52
2023/07/12 02:02:52;;;;;;;4.13;2.70;;;;;;;13.58;66.04;99073.78;5074945;28;20110;-50
2023/07/12 02:05:18;;;;;;;5.07;2.63;;;;;;;13.51;66.37;99061.97;5074258;28;20031;-53
2023/07/12 02:07:44;;;;;;;3.65;2.70;;;;;;;13.49;65.81;99056.75;5074300;28;20143;-55
2023/07/12 02:10:18;;;;;;;3.28;2.50;;;;;;;13.70;65.27;99077.88;5075435;28;20058;-49
2023/07/12 02:12:47;;;;;;;3.80;2.58;;;;;;;13.75;64.96;99082.78;5075323;28;20479;-53
2023/07/12 02:15:13;;;;;;;4.28;2.72;;;;;;;13.79;64.77;99081.44;5074216;28;20032;-53
2023/07/12 02:17:40;;;;;;;2.35;2.15;;;;;;;13.89;64.34;99076.75;5075375;28;20389;-53
2023/07/12 02:20:08;;;;;;;3.17;2.40;;;;;;;14.02;64.14;99080.81;5081027;28;20040;-52
2023/07/12 02:22:35;;;;;;;4.57;2.40;;;;;;;14.08;63.21;99072.09;5094134;28;20428;-53
2023/07/12 02:25:01;;;;;;;3.72;2.40;;;;;;;14.10;63.04;99078.13;5094301;28;20024;-54
2023/07/12 02:27:26;;;;;;;2.47;2.28;;;;;;;14.16;63.09;99072.09;5093652;28;20028;-59
2023/07/12 02:29:52;;;;;;;2.85;2.20;;;;;;;14.29;62.86;99078.84;5085918;28;20028;-53
2023/07/12 02:32:18;;;;;;;4.20;2.35;;;;;;;14.32;62.69;99081.22;5073759;28;20078;-52
2023/07/12 02:34:44;;;;;;;6.38;2.63;;;;;;;13.77;62.82;98984.72;5073841;28;20036;-56
2023/07/12 02:37:09;;;;;;;3.47;2.70;;;;;;;14.36;62.14;99077.16;5079412;28;20102;-55
2023/07/12 02:39:35;;;;;;;2.80;2.30;;;;;;;14.33;61.97;99077.50;5092544;28;20063;-54
2023/07/12 02:42:00;;;;;;;2.83;2.13;;;;;;;14.17;62.58;99068.38;5093890;28;20054;-51
2023/07/12 02:44:26;;;;;;;3.88;2.35;;;;;;;14.14;62.33;99084.88;5093990;28;20470;-53
2023/07/12 02:46:51;;;;;;;3.35;2.55;;;;;;;14.11;62.65;99073.63;5094277;28;20060;-54
2023/07/12 02:49:18;;;;;;;3.42;2.50;;;;;;;14.12;62.77;99064.53;5092305;28;20090;-57
2023/07/12 02:51:44;;;;;;;2.15;1.98;;;;;;;14.24;62.33;99073.13;5085029;28;20039;-50
2023/07/12 02:54:09;;;;;;;4.50;2.67;;;;;;;14.33;61.87;99064.88;5073182;28;20028;-54
2023/07/12 02:56:35;;;;;;;5.25;2.53;;;;;;;14.46;61.30;99058.97;5073693;28;20413;-56
2023/07/12 02:59:00;;;;;;;4.65;2.05;;;;;;;14.61;60.14;99071.78;5074154;28;20024;-52
2023/07/12 03:01:26;;;;;;;3.85;2.10;;;;;;;14.74;59.54;99066.78;5073826;28;20039;-51
2023/07/12 03:03:55;;;;;;;2.78;2.30;;;;;;;14.85;59.53;99073.66;5072977;28;20078;-52
2023/07/12 03:06:21;;;;;;;6.85;2.30;;;;;;;14.92;59.30;99063.03;5073142;28;20101;-52
2023/07/12 03:08:46;;;;;;;2.33;2.13;;;;;;;15.06;58.69;99059.63;5073394;28;20040;-53
2023/07/12 03:11:12;;;;;;;3.60;1.92;;;;;;;15.25;58.07;99054.88;5073938;28;20045;-53
2023/07/12 03:13:37;;;;;;;2.35;2.03;;;;;;;15.47;57.34;99058.66;5072923;28;20029;-55
2023/07/12 03:16:05;;;;;;;3.40;2.05;;;;;;;15.78;56.49;99070.50;5073020;28;20032;-54
2023/07/12 03:18:30;;;;;;;2.53;2.13;;;;;;;15.96;55.90;99066.75;5073239;28;20024;-54
2023/07/12 03:21:01;;;;;;;4.10;2.03;;;;;;;16.12;55.40;99061.22;5074218;28;20024;-54
2023/07/12 03:23:28;;;;;;;5.38;2.55;;;;;;;16.17;55.10;99060.69;5072245;28;20032;-51
2023/07/12 03:25:54;;;;;;;3.72;2.03;;;;;;;16.29;54.35;99061.13;5073019;28;20025;-52
2023/07/12 03:28:19;;;;;;;3.50;2.25;;;;;;;16.48;54.05;99052.53;5072714;28;20035;-51
2023/07/12 03:31:03;;;;;;;6.05;2.22;;;;;;;16.65;54.25;99042.41;5087127;28;20036;-52
2023/07/12 03:33:30;;;;;;;4.07;2.55;;;;;;;16.83;53.41;99056.63;5093185;28;20027;-52
2023/07/12 03:35:56;;;;;;;4.47;2.38;;;;;;;16.92;53.50;99050.13;5092412;28;20422;-53
2023/07/12 03:38:25;;;;;;;2.45;2.00;;;;;;;16.98;52.88;99057.53;5087195;28;20110;-51
2023/07/12 03:40:51;;;;;;;3.03;2.25;;;;;;;16.94;52.90;99050.78;5090004;28;20521;-54
2023/07/12 03:43:17;;;;;;;4.57;1.95;;;;;;;16.95;52.56;99060.56;5092088;28;20039;-53
2023/07/12 03:45:43;;;;;;;3.17;2.08;;;;;;;16.93;52.75;99058.03;5092748;28;20024;-56
2023/07/12 03:48:09;;;;;;;5.40;2.53;;;;;;;16.90;52.46;99063.00;5092688;28;20081;-56
2023/07/12 03:50:40;;;;;;;2.72;2.22;;;;;;;16.84;52.70;99052.88;5091234;28;20444;-51
2023/07/12 03:53:06;;;;;;;2.83;1.80;;;;;;;16.73;52.72;99052.31;5092718;28;20036;-51
2023/07/12 03:55:31;;;;;;;2.08;1.90;;;;;;;16.72;52.99;99050.63;5092076;28;20032;-53
2023/07/12 03:57:57;;;;;;;1.70;1.60;;;;;;;16.73;52.66;99052.31;5093188;28;20024;-53
2023/07/12 04:00:23;;;;;;;6.07;2.10;;;;;;;16.89;52.01;99055.91;5089190;28;20089;-56
2023/07/12 04:02:49;;;;;;;2.72;1.90;;;;;;;17.15;51.38;99050.06;5090335;28;20137;-52
2023/07/12 04:05:15;;;;;;;6.15;2.08;;;;;;;17.43;50.95;99054.00;5092828;28;20234;-54
2023/07/12 04:07:41;;;;;;;3.85;2.10;;;;;;;17.50;50.31;99009.75;5092579;28;20075;-52
2023/07/12 04:10:07;;;;;;;3.10;2.13;;;;;;;18.00;48.86;99040.72;5090623;28;20060;-53
2023/07/12 04:12:35;;;;;;;3.63;2.30;;;;;;;18.21;47.92;99039.94;5092622;28;20028;-53
2023/07/12 04:15:01;;;;;;;5.65;2.92;;;;;;;18.33;47.08;99042.97;5093106;28;20036;-53
2023/07/12 04:17:29;;;;;;;3.85;2.80;;;;;;;18.36;46.68;99029.84;5092738;28;20366;-52
2023/07/12 04:19:54;;;;;;;5.03;3.20;;;;;;;18.58;46.38;99037.97;5089397;28;20043;-53
2023/07/12 04:22:20;;;;;;;3.55;3.00;;;;;;;18.76;45.66;99029.34;5092346;28;20035;-54
2023/07/12 04:24:50;;;;;;;4.85;3.00;;;;;;;19.05;45.78;99045.66;5091541;28;20123;-53
2023/07/12 04:27:15;;;;;;;10.13;3.10;;;;;;;19.12;45.53;99038.38;5092297;28;20058;-58
2023/07/12 04:29:42;;;;;;;3.97;2.97;;;;;;;19.22;44.83;99032.59;5088771;28;20448;-56
2023/07/12 04:32:08;;;;;;;3.40;3.03;;;;;;;19.32;44.85;99038.53;5090739;28;20477;-54
2023/07/12 04:34:33;;;;;;;4.47;3.05;;;;;;;19.33;44.80;99037.47;5092765;28;20105;-60
2023/07/12 04:36:58;;;;;;;4.00;3.03;;;;;;;19.00;44.91;99002.84;5092640;28;20032;-54
2023/07/12 04:39:24;;;;;;;4.63;3.10;;;;;;;18.92;45.15;99038.22;5089385;28;20077;-56
2023/07/12 04:41:49;;;;;;;5.32;3.20;;;;;;;18.59;45.80;99036.13;5087334;28;20090;-54
2023/07/12 04:44:15;;;;;;;4.60;3.30;;;;;;;18.19;46.64;99017.59;5087674;28;20067;-56
2023/07/12 04:46:40;;;;;;;5.47;3.20;;;;;;;18.18;46.41;99043.88;5092206;28;20040;-54
2023/07/12 04:49:08;;;;;;;4.22;2.85;;;;;;;17.90;46.68;99009.38;5092160;28;20031;-55
2023/07/12 04:51:34;;;;;;;4.43;3.28;;;;;;;18.04;46.80;99042.03;5091497;28;20047;-60
2023/07/12 04:54:00;;;;;;;6.88;3.78;;;;;;;17.93;47.09;99040.63;5090708;28;20100;-55
2023/07/12 04:56:25;;;;;;;4.30;3.10;;;;;;;17.75;47.38;99049.19;5092312;28;20431;-55
2023/07/12 04:58:51;;;;;;;5.93;3.55;;;;;;;17.55;47.80;99044.34;5091965;28;20024;-51
2023/07/12 05:01:18;;;;;;;5.63;3.80;;;;;;;17.33;47.81;99036.16;5090109;28;20411;-58
2023/07/12 05:03:44;;;;;;;4.85;3.20;;;;;;;17.26;48.26;99039.81;5090489;28;20615;-55
2023/07/12 05:06:10;;;;;;;4.55;3.80;;;;;;;17.43;47.81;99040.47;5091354;28;20056;-54
2023/07/12 05:08:36;;;;;;;5.00;3.70;;;;;;;17.47;47.45;99048.00;5095670;28;20126;-57
2023/07/12 05:11:03;;;;;;;7.60;4.53;;;;;;;17.59;47.06;99047.53;5096099;28;20035;-56
2023/07/12 05:13:28;;;;;;;6.22;4.90;;;;;;;17.83;46.56;99050.94;5087597;28;20035;-56
2023/07/12 05:15:54;;;;;;;6.10;5.45;;;;;;;18.63;44.63;99043.63;5075284;28;20028;-58
2023/07/12 05:18:21;;;;;;;6.50;5.85;;;;;;;20.56;41.39;99034.09;5074588;28;20483;-56
2023/07/12 05:20:48;;;;;;;7.10;6.40;;;;;;;23.53;35.27;99020.50;5075260;28;20039;-55
2023/07/12 05:23:14;;;;;;;7.35;6.43;;;;;;;26.57;30.46;99021.41;5076055;28;20036;-58
2023/07/12 05:25:50;;;;;;;7.07;6.47;;;;;;;29.04;26.90;99006.09;5075255;28;20040;-53
2023/07/12 05:28:16;;;;;;;8.95;6.60;;;;;;;30.11;24.82;99007.94;5075124;28;20033;-57
2023/07/12 05:30:42;;;;;;;9.07;7.10;;;;;;;29.21;25.34;98981.09;5075834;28;20074;-58
2023/07/12 05:33:07;;;;;;;7.45;6.75;;;;;;;28.10;26.70;99020.16;5075631;28;20036;-59
2023/07/12 05:35:33;;;;;;;8.05;6.20;;;;;;;26.41;28.79;99010.16;5074397;28;20056;-53
2023/07/12 05:37:58;;;;;;;5.13;4.03;;;;;;;25.18;30.76;99012.13;5074963;28;20073;-58
2023/07/12 05:40:24;;;;;;;4.75;3.97;;;;;;;24.17;32.13;99019.25;5074739;28;20426;-61
2023/07/12 05:42:50;;;;;;;3.75;3.25;;;;;;;23.12;33.62;99009.19;5073980;28;20055;-57
2023/07/12 05:45:16;;;;;;;3.80;2.80;;;;;;;22.92;34.23;98999.28;5095302;28;20089;-58
2023/07/12 05:47:42;;;;;;;6.15;2.65;;;;;;;23.05;33.94;99017.44;5094945;28;20031;-59
2023/07/12 05:50:12;;;;;;;5.88;2.70;;;;;;;22.67;34.70;99009.41;5094882;28;20458;-58
2023/07/12 05:52:37;;;;;;;4.47;2.97;;;;;;;22.28;35.64;99009.47;5094992;28;20028;-60
2023/07/12 05:55:06;;;;;;;5.47;2.78;;;;;;;22.32;35.47;99011.56;5094061;28;20419;-59
2023/07/12 05:57:32;;;;;;;3.53;2.70;;;;;;;21.86;36.32;99010.78;5094775;28;20138;-56
2023/07/12 05:59:57;;;;;;;5.25;2.40;;;;;;;21.10;36.89;98980.50;5094902;28;20135;-59
2023/07/12 06:02:23;;;;;;;5.35;2.28;;;;;;;20.64;38.29;99002.09;5094949;28;20064;-57
2023/07/12 06:04:49;;;;;;;2.53;2.28;;;;;;;20.23;39.90;99005.84;5092588;28;20035;-57
2023/07/12 06:07:15;;;;;;;2.85;2.53;;;;;;;19.99;39.94;99015.38;5094850;28;20056;-58
2023/07/12 06:09:41;;;;;;;2.67;2.40;;;;;;;19.88;40.36;99008.66;5092050;28;20040;-58
2023/07/12 06:12:07;;;;;;;3.38;2.33;;;;;;;19.67;41.23;99005.06;5095000;28;20424;-61
2023/07/12 06:14:32;;;;;;;2.63;2.33;;;;;;;19.49;41.32;98994.72;5083870;28;20132;-58
2023/07/12 06:16:58;;;;;;;7.50;2.38;;;;;;;19.33;41.90;99006.78;5073939;28;20390;-59
2023/07/12 06:19:23;;;;;;;7.28;2.67;;;;;;;19.18;42.30;99004.19;5074089;28;20036;-57
2023/07/12 06:21:49;;;;;;;4.13;2.05;;;;;;;19.06;42.37;98983.06;5074493;28;20523;-59
2023/07/12 06:24:15;;;;;;;3.45;2.20;;;;;;;19.32;42.30;98997.81;5075055;28;20371;-56
2023/07/12 06:26:40;;;;;;;4.95;3.00;;;;;;;19.48;41.58;98998.50;5073973;28;20021;-57
2023/07/12 06:29:06;;;;;;;3.53;2.40;;;;;;;19.92;40.51;98993.66;5074739;28;20100;-59
2023/07/12 06:31:32;;;;;;;5.07;2.13;;;;;;;20.25;39.88;98962.97;5075042;28;20032;-57
2023/07/12 06:34:01;;;;;;;4.47;2.40;;;;;;;20.89;38.98;98997.91;5074744;28;20032;-60
2023/07/12 06:36:27;;;;;;;4.10;2.40;;;;;;;21.23;38.35;98987.78;5073980;28;20119;-57
2023/07/12 06:38:52;;;;;;;7.22;2.30;;;;;;;21.62;37.34;98991.38;5073172;28;20418;-61
2023/07/12 06:41:18;;;;;;;9.77;2.47;;;;;;;21.86;37.55;98994.44;5073729;28;20112;-60
2023/07/12 06:43:43;;;;;;;3.47;2.20;;;;;;;21.98;37.23;98989.13;5074473;28;20035;-60
2023/07/12 06:46:09;;;;;;;5.25;2.40;;;;;;;22.19;36.84;98989.81;5073852;28;20033;-60
2023/07/12 06:48:34;;;;;;;4.28;2.38;;;;;;;22.46;36.09;98993.22;5069716;28;20127;-59
2023/07/12 06:51:00;;;;;;;5.20;2.22;;;;;;;22.89;35.19;98980.66;5060175;28;20346;-62
2023/07/12 06:53:26;;;;;;;5.25;2.10;;;;;;;23.14;35.40;98978.91;5077310;28;20055;-61
2023/07/12 06:55:53;;;;;;;2.40;2.00;;;;;;;22.93;35.66;98981.03;5056793;28;20111;-62
2023/07/12 06:58:18;;;;;;;6.00;2.28;;;;;;;22.42;36.45;98981.03;5052386;28;20407;-62
2023/07/12 07:00:44;;;;;;;4.15;2.25;;;;;;;21.73;38.00;98984.44;5053446;28;20119;-61
2023/07/12 07:03:12;;;;;;;6.10;2.30;;;;;;;21.05;39.28;98983.00;5063392;28;20025;-63
2023/07/12 07:05:44;;;;;;;6.40;2.00;;;;;;;20.32;40.74;98969.25;5072745;28;20043;-60
2023/07/12 07:08:11;;;;;;;7.32;2.30;;;;;;;19.88;41.96;98989.63;5074028;28;20436;-59
2023/07/12 07:10:37;;;;;;;4.93;2.20;;;;;;;19.40;43.32;98990.53;5073175;28;20051;-62
2023/07/12 07:13:02;;;;;;;4.53;2.10;;;;;;;18.96;44.49;98987.16;5077180;28;20020;-62
2023/07/12 07:15:28;;;;;;;3.58;2.05;;;;;;;18.57;45.66;98992.94;5074335;28;20459;-61
2023/07/12 07:17:54;;;;;;;6.32;2.60;;;;;;;18.31;45.92;98990.81;5072854;28;20035;-60
2023/07/12 07:20:21;;;;;;;5.65;2.20;;;;;;;18.04;46.34;98994.13;5072248;28;20112;-62
2023/07/12 07:22:46;;;;;;;7.50;2.47;;;;;;;17.81;46.88;98988.84;5073885;28;20036;-62
2023/07/12 07:25:12;;;;;;;4.07;2.50;;;;;;;17.78;47.24;98983.81;5092616;28;20042;-63
2023/07/12 07:27:38;;;;;;;4.50;1.95;;;;;;;17.85;47.08;98984.75;5083203;28;20029;-62
2023/07/12 07:30:04;;;;;;;11.00;2.42;;;;;;;18.02;46.95;98998.06;5069970;28;20539;-62
2023/07/12 07:32:31;;;;;;;2.13;1.92;;;;;;;18.65;45.36;98994.66;5072647;28;20480;-61
2023/07/12 07:34:57;;;;;;;5.70;2.17;;;;;;;19.49;43.82;98992.03;5072892;28;20110;-61
2023/07/12 07:37:23;;;;;;;3.63;1.95;;;;;;;20.17;42.11;98980.31;5070740;28;20056;-62
2023/07/12 07:39:48;;;;;;;3.60;2.22;;;;;;;20.79;40.11;98985.56;5090296;28;20035;-61
2023/07/12 07:42:14;;;;;;;6.47;2.00;;;;;;;21.41;38.63;98978.91;5092338;28;20039;-62
2023/07/12 07:44:39;;;;;;;3.95;2.10;;;;;;;22.08;37.64;98977.72;5090706;28;20024;-63
2023/07/12 07:47:05;;;;;;;3.97;1.70;;;;;;;22.93;35.76;98976.41;5089941;28;20103;-61
2023/07/12 07:49:31;;;;;;;2.55;1.70;;;;;;;24.74;33.04;98964.03;5059524;28;20036;-61
2023/07/12 07:51:56;;;;;;;3.60;1.67;;;;;;;25.22;31.82;98967.59;5052150;28;20029;-61
2023/07/12 07:54:22;;;;;;;6.13;2.25;;;;;;;24.83;32.07;98971.91;5051917;28;20095;-61
2023/07/12 07:56:50;;;;;;;3.83;1.83;;;;;;;24.25;33.71;98975.19;5056186;28;20036;-61
2023/07/12 07:59:16;;;;;;;2.88;1.83;;;;;;;23.42;34.79;98969.38;5063240;28;20029;-61
2023/07/12 08:01:41;;;;;;;9.80;2.08;;;;;;;22.61;36.19;98964.75;5071857;28;20044;-62
2023/07/12 08:04:08;;;;;;;7.03;2.15;;;;;;;21.61;37.39;98935.22;5070590;28;20067;-60
2023/07/12 08:06:35;;;;;;;5.13;1.85;;;;;;;20.99;39.65;98976.53;5072357;28;20044;-61
2023/07/12 08:09:01;;;;;;;8.05;2.20;;;;;;;20.08;41.02;98949.78;5051236;28;20418;-61
2023/07/12 08:11:27;;;;;;;7.22;2.22;;;;;;;19.76;42.34;98989.38;5064827;28;20028;-61
2023/07/12 08:13:53;;;;;;;7.28;2.15;;;;;;;19.27;43.14;98986.69;5056155;28;20098;-61
2023/07/12 08:16:19;;;;;;;4.63;1.90;;;;;;;18.86;43.64;98963.91;5046247;28;20115;-59
2023/07/12 08:18:45;;;;;;;3.25;1.88;;;;;;;18.88;43.90;98982.72;5071331;28;20404;-58
2023/07/12 08:21:12;;;;;;;6.57;2.22;;;;;;;18.81;44.27;98988.09;5071935;28;20040;-57
2023/07/12 08:23:37;;;;;;;5.15;2.38;;;;;;;18.82;44.53;98983.53;5071876;28;20119;-57
2023/07/12 08:26:03;;;;;;;4.10;2.58;;;;;;;18.71;44.56;98974.88;5075730;28;20979;-58
2023/07/12 08:28:28;;;;;;;5.22;2.08;;;;;;;18.56;45.04;98976.84;5091901;28;20085;-61
2023/07/12 08:30:54;;;;;;;4.38;2.30;;;;;;;18.50;44.89;98971.19;5091762;28;20097;-60
2023/07/12 08:33:20;;;;;;;6.70;2.60;;;;;;;18.32;45.59;98978.94;5089022;28;20035;-56
2023/07/12 08:35:45;;;;;;;2.17;1.88;;;;;;;18.19;47.04;98980.53;5073440;28;20029;-59
2023/07/12 08:38:11;;;;;;;4.43;2.13;;;;;;;18.03;46.74;98984.34;5072202;28;20041;-57
2023/07/12 08:40:44;;;;;;;3.63;2.03;;;;;;;17.77;48.08;98971.31;5071277;28;20086;-60
2023/07/12 08:43:18;;;;;;;4.68;2.08;;;;;;;17.72;48.53;98987.31;5075637;28;20437;-56
2023/07/12 08:45:46;;;;;;;4.57;2.33;;;;;;;17.48;48.84;98995.59;5075436;28;20107;-61
2023/07/12 08:48:19;;;;;;;8.60;2.70;;;;;;;17.30;50.18;98993.25;5075321;28;20039;-59
2023/07/12 08:50:46;;;;;;;7.25;2.30;;;;;;;17.01;52.16;98992.25;5075068;28;20028;-64
2023/07/12 08:53:16;;;;;;;3.97;2.40;;;;;;;16.94;52.83;98994.00;5076569;28;20507;-58
2023/07/12 08:55:42;;;;;;;4.53;2.17;;;;;;;16.91;52.66;98989.78;5055288;28;20029;-61
2023/07/12 08:58:17;;;;;;;3.67;2.17;;;;;;;17.04;51.91;98999.97;5069309;28;20043;-57
2023/07/12 09:00:44;;;;;;;14.60;2.88;;;;;;;17.04;51.76;98989.16;5087909;28;20032;-62
2023/07/12 09:03:09;;;;;;;7.50;2.72;;;;;;;17.17;50.82;98998.50;5094576;28;20048;-57
2023/07/12 09:05:35;;;;;;;5.25;2.55;;;;;;;17.28;50.06;98989.06;5073557;28;20111;-64
2023/07/12 09:08:17;;;;;;;9.20;2.60;;;;;;;17.52;49.33;98990.63;5074096;28;20040;-58
2023/07/12 09:10:56;;;;;;;8.07;2.80;;;;;;;17.58;50.25;98999.84;5075567;28;20098;-63
2023/07/12 09:13:33;;;;;;;5.57;2.90;;;;;;;17.61;50.70;98986.78;5089625;28;20073;-59
2023/07/12 09:15:59;;;;;;;10.45;3.10;;;;;;;17.68;50.76;98989.53;5076903;28;20024;-55
2023/07/12 09:18:36;;;;;;;11.15;3.13;;;;;;;18.02;48.93;98995.34;5081598;28;20463;-54
2023/07/12 09:21:12;;;;;;;9.52;3.00;;;;;;;18.36;48.46;98991.91;5085453;28;20042;-56
2023/07/12 09:23:40;;;;;;;6.78;2.97;;;;;;;18.57;47.69;99002.94;5095041;28;20052;-53
2023/07/12 09:26:16;;;;;;;5.72;3.10;;;;;;;18.83;47.21;98993.31;5095135;28;20071;-54
2023/07/12 09:28:42;;;;;;;3.78;2.20;;;;;;;18.97;43.99;98983.41;5095728;28;20105;-57
2023/07/12 09:31:13;;;;;;;6.78;2.03;;;;;;;19.39;43.32;98991.56;5094921;28;20044;-55
2023/07/12 09:33:38;;;;;;;2.60;2.20;;;;;;;19.56;42.85;98990.19;5088875;28;20728;-55
2023/07/12 09:36:05;;;;;;;4.10;2.40;;;;;;;19.69;43.30;98991.25;5090895;28;20107;-53
2023/07/12 09:38:35;;;;;;;4.68;2.00;;;;;;;19.79;42.05;98999.88;5074442;28;20040;-49
2023/07/12 09:41:09;;;;;;;4.38;1.80;;;;;;;19.89;43.27;98985.88;5074405;28;20086;-54
2023/07/12 09:43:38;;;;;;;4.82;1.70;;;;;;;19.86;41.76;98994.44;5073476;28;20448;-55
2023/07/12 09:46:17;;;;;;;5.95;1.70;;;;;;;19.71;43.66;98992.75;5069792;28;20029;-57
2023/07/12 09:48:55;;;;;;;4.35;1.80;;;;;;;19.53;43.89;98995.19;5059807;28;20032;-60
2023/07/12 09:51:40;;;;;;;5.90;2.03;;;;;;;19.48;44.63;98990.34;5074691;28;20033;-59
2023/07/12 09:54:21;;;;;;;6.25;1.90;;;;;;;19.48;44.86;98984.91;5074131;28;20039;-56
2023/07/12 09:57:01;;;;;;;3.63;1.90;;;;;;;19.76;43.70;98992.09;5074736;28;20040;-67
2023/07/12 09:59:44;;;;;;;3.65;1.85;;;;;;;20.02;42.90;98982.41;5083545;28;20120;-55
2023/07/12 10:02:29;;;;;;;3.88;1.80;;;;;;;20.23;42.00;98981.38;5094754;28;20044;-56
2023/07/12 10:05:11;;;;;;;1.73;1.60;;;;;;;20.60;41.28;98983.69;5076054;28;20036;-56
2023/07/12 10:07:49;;;;;;;3.63;1.70;;;;;;;20.81;39.76;98979.91;5074103;28;21144;-55
2023/07/12 10:10:45;;;;;;;4.18;1.67;;;;;;;21.20;39.79;98964.53;5074642;28;20158;-55
2023/07/12 10:13:21;;;;;;;1.35;1.13;;;;;;;21.22;38.18;98972.50;5074066;28;20032;-56
2023/07/12 10:15:49;;;;;;;3.13;1.40;;;;;;;21.29;37.77;98972.44;5074602;28;21554;-54
2023/07/12 10:18:24;;;;;;;1.42;1.30;;;;;;;21.45;37.01;98973.84;5074401;28;20451;-56
2023/07/12 10:20:50;;;;;;;2.60;1.40;;;;;;;21.32;36.94;98942.06;5078701;28;20025;-56
2023/07/12 10:23:20;;;;;;;2.80;1.70;;;;;;;21.52;36.32;98964.59;5071516;28;20047;-52
2023/07/12 10:25:54;;;;;;;3.22;1.52;;;;;;;21.62;36.55;98955.16;5076642;28;20428;-58
2023/07/12 10:28:43;;;;;;;2.42;1.50;;;;;;;21.76;36.42;98962.19;5087323;28;20031;-55
2023/07/12 10:31:41;;;;;;;2.83;1.50;;;;;;;21.62;36.57;98975.03;5090077;28;20036;-59
2023/07/12 10:34:41;;;;;;;8.77;1.42;;;;;;;21.59;37.01;98970.03;5084846;28;20028;-51
2023/07/12 10:37:57;;;;;;;1.45;1.25;;;;;;;21.70;36.07;98964.97;5073512;28;20032;-56
2023/07/12 10:40:29;;;;;;;4.53;1.20;;;;;;;21.50;35.20;98972.16;5073489;28;20364;-59
2023/07/12 10:42:59;;;;;;;2.70;1.38;;;;;;;21.18;35.73;98980.25;5074171;28;20056;-57
2023/07/12 10:45:29;;;;;;;2.17;1.50;;;;;;;20.73;36.04;98975.47;5067920;28;20100;-57
2023/07/12 10:47:57;;;;;;;2.55;1.27;;;;;;;20.55;36.82;98969.88;5083752;28;20644;-57
2023/07/12 10:50:32;;;;;;;2.28;1.42;;;;;;;20.53;36.91;98974.69;5075437;28;20040;-58
2023/07/12 10:53:14;;;;;;;4.10;1.83;;;;;;;20.55;37.30;98975.31;5091673;28;20051;-61
2023/07/12 10:55:44;;;;;;;4.68;1.55;;;;;;;20.20;37.48;98969.03;5087448;28;20115;-60
2023/07/12 10:58:43;;;;;;;4.05;1.70;;;;;;;19.82;38.21;98972.31;5091696;28;20032;-57
2023/07/12 11:01:41;;;;;;;2.90;1.50;;;;;;;19.53;38.40;98985.13;5093502;28;20286;-59
2023/07/12 11:04:29;;;;;;;2.92;1.60;;;;;;;19.25;38.95;98986.06;5082272;28;20052;-58
2023/07/12 11:07:07;;;;;;;2.28;1.17;;;;;;;19.16;39.08;98979.16;5061691;28;20389;-58
2023/07/12 11:12:14;;;;;;;3.42;1.55;;;;;;;19.12;38.73;98975.16;5052594;28;20061;-54
2023/07/12 11:14:43;;;;;;;3.33;1.45;;;;;;;19.18;37.80;98977.91;5052559;28;20367;-52
2023/07/12 11:17:11;;;;;;;1.75;1.10;;;;;;;19.51;37.85;98973.66;5072371;28;20071;-54
2023/07/12 11:19:40;;;;;;;2.28;1.30;;;;;;;19.99;36.86;98974.63;5060034;28;20120;-59
2023/07/12 11:22:17;;;;;;;4.10;1.48;;;;;;;20.37;36.44;98968.63;5054756;28;20028;-55
2023/07/12 11:25:01;;;;;;;4.57;2.30;;;;;;;20.77;35.72;98973.19;5072423;28;20032;-57
2023/07/12 11:27:53;;;;;;;5.18;1.52;;;;;;;20.81;35.13;98960.03;5074192;28;20028;-57
2023/07/12 11:30:24;;;;;;;5.78;2.05;;;;;;;20.91;34.11;98968.59;5080220;28;20033;-55
2023/07/12 11:32:57;;;;;;;2.15;1.55;;;;;;;20.99;34.26;98967.53;5072737;28;20539;-53
2023/07/12 11:35:42;;;;;;;3.03;1.35;;;;;;;21.04;34.52;98968.56;5071408;28;20411;-54
2023/07/12 11:38:19;;;;;;;3.60;1.48;;;;;;;21.22;33.80;98962.44;5071599;28;20096;-55
2023/07/12 11:40:48;;;;;;;2.70;1.50;;;;;;;21.14;33.68;98965.41;5087883;28;20051;-59
2023/07/12 11:43:22;;;;;;;2.60;1.15;;;;;;;21.32;33.97;98961.97;5090078;28;20607;-54
2023/07/12 11:45:54;;;;;;;5.10;1.23;;;;;;;21.27;33.55;98950.91;5092536;28;20036;-54